createdAt,value
2018-01-23T00:00:25.065Z,3.35
2018-01-23T00:02:54.041Z,2.70
2018-01-23T00:05:21.491Z,2.50
2018-01-23T00:07:49.699Z,2.30
2018-01-23T00:10:17.727Z,2.37
2018-01-23T00:12:45.659Z,2.65
2018-01-23T00:15:13.139Z,2.72
2018-01-23T00:17:41.022Z,3.08
2018-01-23T00:20:08.489Z,3.92
2018-01-23T00:22:36.906Z,5.95
2018-01-23T00:25:04.766Z,4.75
2018-01-23T00:27:32.266Z,4.05
2018-01-23T00:30:00.564Z,2.55
2018-01-23T00:32:28.029Z,2.60
2018-01-23T00:34:55.558Z,3.25
2018-01-23T00:37:23.070Z,3.17
2018-01-23T00:39:50.982Z,3.12
2018-01-23T00:42:18.920Z,3.37
2018-01-23T00:44:47.178Z,2.80
2018-01-23T00:47:15.031Z,4.18
2018-01-23T00:49:42.541Z,3.40
2018-01-23T00:52:10.483Z,3.67
2018-01-23T00:54:38.806Z,3.22
2018-01-23T00:57:07.102Z,2.90
2018-01-23T00:59:34.700Z,3.97
2018-01-23T01:02:03.284Z,3.85
2018-01-23T01:04:30.774Z,2.67
2018-01-23T01:06:59.999Z,2.50
2018-01-23T01:09:27.529Z,2.90
2018-01-23T01:11:55.496Z,3.45
2018-01-23T01:14:23.019Z,2.33
2018-01-23T01:16:51.240Z,2.42
2018-01-23T01:19:19.463Z,3.40
2018-01-23T01:21:48.087Z,2.37
2018-01-23T01:24:15.559Z,2.67
2018-01-23T01:26:43.032Z,2.50
2018-01-23T01:29:11.235Z,2.28
2018-01-23T01:31:39.095Z,2.40
2018-01-23T01:34:06.566Z,2.40
2018-01-23T01:36:34.460Z,2.65
2018-01-23T01:39:02.027Z,2.87
2018-01-23T01:41:29.942Z,2.50
2018-01-23T01:43:58.103Z,2.20
2018-01-23T01:46:25.964Z,2.67
2018-01-23T01:48:54.495Z,2.97
2018-01-23T01:51:22.438Z,2.40
2018-01-23T01:53:49.896Z,2.10
2018-01-23T01:56:17.758Z,2.45
2018-01-23T01:58:46.299Z,2.60
2018-01-23T02:01:14.899Z,2.30
2018-01-23T02:03:42.782Z,3.30
2018-01-23T02:06:10.970Z,2.50
2018-01-23T02:08:40.215Z,3.53
2018-01-23T02:11:07.670Z,2.30
2018-01-23T02:13:35.503Z,2.60
2018-01-23T02:16:03.734Z,2.37
2018-01-23T02:18:31.983Z,2.70
2018-01-23T02:20:59.817Z,3.30
2018-01-23T02:23:27.742Z,2.80
2018-01-23T02:25:55.274Z,2.37
2018-01-23T02:28:23.910Z,2.62
2018-01-23T02:30:51.771Z,2.87
2018-01-23T02:33:19.239Z,4.00
2018-01-23T02:35:47.103Z,3.12
2018-01-23T02:38:15.119Z,2.90
2018-01-23T02:40:43.356Z,2.95
2018-01-23T02:43:11.671Z,3.30
2018-01-23T02:45:39.140Z,3.72
2018-01-23T02:48:06.591Z,3.85
2018-01-23T02:50:34.511Z,5.00
2018-01-23T02:53:02.749Z,4.03
2018-01-23T02:55:30.621Z,4.93
2018-01-23T02:57:58.611Z,3.83
2018-01-23T03:00:26.073Z,4.10
2018-01-23T03:02:53.554Z,4.78
2018-01-23T03:05:21.396Z,4.85
2018-01-23T03:07:49.625Z,5.03
2018-01-23T03:10:17.491Z,5.05
2018-01-23T03:12:45.359Z,5.10
2018-01-23T03:15:12.827Z,4.70
2018-01-23T03:17:41.292Z,4.97
2018-01-23T03:20:09.057Z,5.28
2018-01-23T03:22:37.121Z,4.62
2018-01-23T03:25:05.360Z,5.20
2018-01-23T03:27:34.047Z,4.90
2018-01-23T03:30:02.360Z,5.00
2018-01-23T03:32:29.832Z,3.92
2018-01-23T03:34:57.661Z,4.93
2018-01-23T03:37:25.139Z,4.90
2018-01-23T03:39:52.604Z,5.85
2018-01-23T03:42:20.079Z,4.62
2018-01-23T03:44:47.539Z,3.80
2018-01-23T03:47:15.412Z,4.50
2018-01-23T03:49:43.651Z,5.20
2018-01-23T03:52:11.523Z,5.00
2018-01-23T03:54:38.984Z,4.82
2018-01-23T03:57:06.856Z,6.55
2018-01-23T03:59:34.326Z,5.65
2018-01-23T04:02:01.806Z,4.85
2018-01-23T04:04:30.059Z,5.18
2018-01-23T04:06:58.295Z,4.35
2018-01-23T04:09:26.545Z,5.30
2018-01-23T04:11:55.116Z,4.60
2018-01-23T04:14:23.030Z,4.50
2018-01-23T04:16:50.514Z,4.90
2018-01-23T04:19:18.019Z,4.93
2018-01-23T04:21:45.883Z,5.15
2018-01-23T04:24:14.139Z,4.50
2018-01-23T04:26:41.624Z,4.70
2018-01-23T04:29:09.086Z,4.72
2018-01-23T04:31:37.377Z,4.97
2018-01-23T04:34:05.695Z,5.50
2018-01-23T04:36:33.948Z,4.95
2018-01-23T04:39:01.417Z,4.97
2018-01-23T04:41:29.186Z,4.50
2018-01-23T04:43:57.079Z,5.57
2018-01-23T04:46:25.307Z,3.95
2018-01-23T04:48:53.515Z,4.30
2018-01-23T04:51:20.979Z,5.75
2018-01-23T04:53:48.443Z,4.32
2018-01-23T04:56:16.607Z,4.80
2018-01-23T04:58:44.563Z,4.53
2018-01-23T05:01:12.031Z,4.97
2018-01-23T05:03:40.614Z,4.65
2018-01-23T05:06:08.466Z,4.60
2018-01-23T05:08:35.922Z,4.95
2018-01-23T05:11:04.163Z,4.93
2018-01-23T05:13:32.763Z,4.85
2018-01-23T05:16:00.987Z,4.65
2018-01-23T05:18:29.548Z,5.05
2018-01-23T05:20:57.775Z,5.15
2018-01-23T05:23:26.461Z,4.62
2018-01-23T05:25:54.279Z,4.90
2018-01-23T05:28:21.755Z,6.07
2018-01-23T05:30:49.227Z,5.37
2018-01-23T05:33:16.703Z,4.95
2018-01-23T05:35:44.665Z,5.55
2018-01-23T05:38:12.522Z,5.10
2018-01-23T05:40:40.767Z,5.60
2018-01-23T05:43:08.635Z,5.55
2018-01-23T05:45:36.120Z,5.95
2018-01-23T05:48:03.920Z,6.00
2018-01-23T05:50:31.790Z,5.72
2018-01-23T05:52:59.261Z,6.35
2018-01-23T05:55:27.441Z,6.20
2018-01-23T05:57:55.311Z,6.15
2018-01-23T06:00:23.172Z,6.43
2018-01-23T06:02:51.760Z,6.72
2018-01-23T06:05:19.631Z,6.78
2018-01-23T06:07:47.495Z,6.70
2018-01-23T06:10:16.840Z,6.85
2018-01-23T06:12:44.717Z,6.68
2018-01-23T06:15:12.950Z,10.25
2018-01-23T06:17:40.819Z,9.02
2018-01-23T06:20:08.696Z,7.30
2018-01-23T06:22:36.169Z,8.75
2018-01-23T06:25:04.449Z,8.43
2018-01-23T06:27:33.058Z,9.23
2018-01-23T06:30:00.538Z,8.50
2018-01-23T06:32:28.797Z,11.15
2018-01-23T06:34:56.296Z,9.45
2018-01-23T06:37:24.170Z,10.07
2018-01-23T06:39:52.034Z,8.70
2018-01-23T06:42:19.499Z,9.05
2018-01-23T06:44:47.378Z,9.40
2018-01-23T06:47:15.766Z,11.20
2018-01-23T06:49:44.047Z,9.38
2018-01-23T06:52:11.963Z,8.55
2018-01-23T06:54:40.247Z,8.82
2018-01-23T06:57:08.487Z,8.18
2018-01-23T06:59:36.726Z,8.32
2018-01-23T07:02:05.841Z,8.45
2018-01-23T07:04:33.319Z,8.45
2018-01-23T07:07:00.795Z,8.30
2018-01-23T07:09:29.049Z,7.90
2018-01-23T07:11:56.517Z,9.02
2018-01-23T07:14:24.037Z,6.97
2018-01-23T07:16:53.072Z,6.35
2018-01-23T07:19:20.931Z,7.65
2018-01-23T07:21:49.267Z,6.60
2018-01-23T07:24:17.643Z,7.60
2018-01-23T07:26:45.108Z,7.85
2018-01-23T07:29:12.575Z,7.35
2018-01-23T07:31:40.787Z,7.62
2018-01-23T07:34:08.697Z,7.07
2018-01-23T07:36:36.563Z,8.40
2018-01-23T07:39:05.615Z,7.93
2018-01-23T07:41:33.085Z,9.57
2018-01-23T07:44:00.939Z,8.63
2018-01-23T07:46:29.249Z,8.77
2018-01-23T07:48:57.162Z,8.40
2018-01-23T07:51:25.379Z,8.70
2018-01-23T07:53:52.858Z,7.60
2018-01-23T07:56:20.337Z,7.57
2018-01-23T07:58:48.559Z,8.40
2018-01-23T08:01:16.868Z,7.30
2018-01-23T08:03:44.734Z,8.07
2018-01-23T08:06:12.984Z,8.02
2018-01-23T08:08:40.956Z,8.63
2018-01-23T08:11:08.811Z,8.00
2018-01-23T08:13:36.667Z,8.48
2018-01-23T08:16:05.234Z,7.78
2018-01-23T08:18:32.699Z,7.80
2018-01-23T08:21:00.171Z,8.15
2018-01-23T08:23:28.423Z,8.25
2018-01-23T08:25:56.293Z,7.78
2018-01-23T08:28:23.814Z,8.70
2018-01-23T08:30:51.640Z,8.63
2018-01-23T08:33:19.889Z,7.37
2018-01-23T08:35:47.360Z,8.55
2018-01-23T08:38:15.231Z,8.32
2018-01-23T08:40:43.634Z,7.70
2018-01-23T08:43:11.863Z,8.85
2018-01-23T08:45:39.748Z,8.32
2018-01-23T08:48:07.620Z,8.73
2018-01-23T08:50:35.864Z,6.75
2018-01-23T08:53:04.125Z,7.45
2018-01-23T08:55:31.603Z,7.18
2018-01-23T08:57:59.077Z,7.70
2018-01-23T09:00:27.399Z,7.35
2018-01-23T09:02:55.263Z,7.50
2018-01-23T09:05:22.759Z,8.13
2018-01-23T09:07:50.643Z,7.10
2018-01-23T09:10:18.519Z,6.80
2018-01-23T09:12:46.410Z,6.35
2018-01-23T09:15:13.894Z,6.00
2018-01-23T09:17:41.440Z,6.62
2018-01-23T09:20:09.336Z,6.25
2018-01-23T09:22:37.223Z,7.90
2018-01-23T09:25:04.687Z,5.85
2018-01-23T09:27:32.549Z,5.20
2018-01-23T09:30:01.801Z,5.53
2018-01-23T09:32:29.853Z,5.05
2018-01-23T09:34:57.942Z,6.20
2018-01-23T09:37:25.432Z,6.10
2018-01-23T09:39:53.295Z,6.20
2018-01-23T09:42:21.163Z,5.45
2018-01-23T09:44:48.960Z,5.32
2018-01-23T09:47:16.469Z,4.40
2018-01-23T09:49:44.732Z,4.55
2018-01-23T09:52:12.206Z,5.65
2018-01-23T09:54:40.432Z,6.05
2018-01-23T09:57:08.327Z,5.18
2018-01-23T09:59:36.957Z,5.35
2018-01-23T10:02:04.823Z,5.62
2018-01-23T10:04:32.683Z,5.72
2018-01-23T10:07:01.655Z,4.80
2018-01-23T10:09:29.122Z,4.37
2018-01-23T10:11:56.637Z,4.72
2018-01-23T10:14:24.514Z,4.70
2018-01-23T10:16:52.174Z,5.55
2018-01-23T10:19:20.140Z,5.30
2018-01-23T10:21:48.382Z,4.50
2018-01-23T10:24:16.659Z,4.95
2018-01-23T10:26:44.896Z,5.43
2018-01-23T10:29:12.792Z,5.30
2018-01-23T10:31:41.139Z,4.20
2018-01-23T10:34:08.994Z,5.20
2018-01-23T10:36:36.589Z,5.90
2018-01-23T10:39:04.819Z,5.87
2018-01-23T10:41:33.501Z,4.97
2018-01-23T10:44:01.472Z,4.93
2018-01-23T10:46:30.090Z,5.40
2018-01-23T10:48:57.567Z,4.97
2018-01-23T10:51:25.889Z,4.68
2018-01-23T10:53:53.385Z,3.92
2018-01-23T10:56:21.984Z,5.40
2018-01-23T10:58:49.912Z,4.50
2018-01-23T11:01:19.718Z,4.68
2018-01-23T11:03:47.617Z,3.90
2018-01-23T11:06:15.546Z,3.67
2018-01-23T11:08:43.816Z,3.80
2018-01-23T11:11:12.103Z,5.10
2018-01-23T11:13:39.632Z,4.00
2018-01-23T11:16:07.908Z,3.45
2018-01-23T11:18:36.238Z,4.90
2018-01-23T11:21:04.149Z,3.92
2018-01-23T11:23:32.381Z,3.90
2018-01-23T11:26:01.359Z,3.50
2018-01-23T11:28:29.567Z,3.78
2018-01-23T11:30:57.437Z,4.03
2018-01-23T11:33:25.754Z,3.78
2018-01-23T11:35:53.727Z,3.25
2018-01-23T11:38:22.020Z,3.05
2018-01-23T11:40:49.482Z,2.75
2018-01-23T11:43:17.446Z,3.00
2018-01-23T11:45:45.310Z,2.75
2018-01-23T11:48:13.594Z,3.22
2018-01-23T11:50:41.471Z,3.05
2018-01-23T11:53:09.357Z,3.95
2018-01-23T11:55:37.276Z,2.67
2018-01-23T11:58:05.504Z,2.90
2018-01-23T12:00:33.803Z,3.47
2018-01-23T12:03:02.102Z,3.50
2018-01-23T12:05:29.576Z,3.03
2018-01-23T12:07:57.838Z,3.30
2018-01-23T12:10:25.723Z,1.83
2018-01-23T12:12:54.095Z,2.62
2018-01-23T12:15:22.326Z,2.20
2018-01-23T12:17:50.584Z,3.20
2018-01-23T12:20:18.503Z,3.00
2018-01-23T12:22:46.410Z,3.22
2018-01-23T12:25:14.852Z,2.25
2018-01-23T12:27:42.743Z,2.05
2018-01-23T12:30:11.026Z,3.08
2018-01-23T12:32:38.900Z,2.97
2018-01-23T12:35:06.923Z,2.65
2018-01-23T12:37:35.179Z,3.20
2018-01-23T12:40:03.044Z,3.05
2018-01-23T12:42:30.964Z,2.35
2018-01-23T12:44:59.962Z,3.58
2018-01-23T12:47:27.468Z,3.00
2018-01-23T12:49:55.778Z,3.20
2018-01-23T12:52:23.747Z,1.83
2018-01-23T12:54:51.980Z,2.87
2018-01-23T12:57:20.202Z,3.12
2018-01-23T12:59:51.931Z,1.87
2018-01-23T13:02:20.482Z,3.40
2018-01-23T13:04:48.351Z,3.67
2018-01-23T13:07:16.227Z,3.20
2018-01-23T13:09:44.116Z,3.20
2018-01-23T13:12:12.085Z,3.62
2018-01-23T13:14:40.339Z,4.12
2018-01-23T13:17:07.895Z,3.72
2018-01-23T13:19:35.762Z,2.97
2018-01-23T13:22:03.668Z,4.50
2018-01-23T13:24:31.571Z,4.05
2018-01-23T13:26:59.897Z,2.90
2018-01-23T13:29:28.515Z,4.18
2018-01-23T13:31:56.399Z,4.53
2018-01-23T13:34:24.674Z,4.10
2018-01-23T13:36:52.921Z,3.80
2018-01-23T13:39:20.836Z,3.08
2018-01-23T13:41:49.069Z,4.55
2018-01-23T13:44:17.007Z,4.22
2018-01-23T13:46:44.891Z,4.40
2018-01-23T13:49:12.752Z,3.58
2018-01-23T13:51:41.054Z,4.50
2018-01-23T13:54:08.938Z,4.03
2018-01-23T13:56:36.437Z,3.05
2018-01-23T13:59:04.000Z,4.35
2018-01-23T14:01:31.917Z,4.50
2018-01-23T14:04:00.912Z,4.62
2018-01-23T14:06:29.159Z,4.50
2018-01-23T14:08:57.407Z,4.50
2018-01-23T14:11:25.379Z,6.43
2018-01-23T14:13:52.860Z,4.35
2018-01-23T14:16:20.620Z,3.08
2018-01-23T14:18:48.483Z,3.67
2018-01-23T14:21:16.709Z,3.80
2018-01-23T14:23:44.209Z,4.70
2018-01-23T14:26:12.168Z,4.10
2018-01-23T14:28:40.067Z,3.85
2018-01-23T14:31:08.316Z,4.80
2018-01-23T14:33:36.285Z,5.50
2018-01-23T14:36:04.535Z,4.87
2018-01-23T14:38:34.226Z,4.43
2018-01-23T14:41:02.128Z,4.15
2018-01-23T14:43:29.975Z,4.75
2018-01-23T14:45:57.860Z,5.55
2018-01-23T14:48:25.711Z,5.80
2018-01-23T14:50:53.165Z,5.97
2018-01-23T14:53:21.055Z,6.35
2018-01-23T14:55:49.859Z,5.62
2018-01-23T14:58:18.108Z,6.75
2018-01-23T15:00:45.778Z,6.57
2018-01-23T15:03:13.673Z,7.10
2018-01-23T15:05:41.216Z,6.78
2018-01-23T15:08:09.462Z,6.25
2018-01-23T15:10:37.451Z,6.43
2018-01-23T15:13:06.978Z,8.32
2018-01-23T15:15:35.668Z,7.20
2018-01-23T15:18:03.520Z,7.60
2018-01-23T15:20:31.407Z,9.15
2018-01-23T15:22:59.975Z,6.60
2018-01-23T15:25:31.350Z,8.50
2018-01-23T15:27:59.713Z,8.30
2018-01-23T15:30:28.006Z,8.20
2018-01-23T15:32:56.302Z,10.13
2018-01-23T15:35:24.657Z,9.45
2018-01-23T15:37:53.330Z,10.05
2018-01-23T15:40:21.671Z,8.82
2018-01-23T15:42:50.106Z,9.38
2018-01-23T15:45:18.529Z,9.82
2018-01-23T15:47:46.829Z,10.75
2018-01-23T15:50:14.692Z,11.02
2018-01-23T15:52:42.966Z,11.27
2018-01-23T15:55:10.524Z,12.32
2018-01-23T15:57:38.776Z,12.60
2018-01-23T16:00:07.778Z,6.72
2018-01-23T16:02:37.107Z,12.35
2018-01-23T16:05:04.651Z,12.05
2018-01-23T16:07:33.474Z,11.07
2018-01-23T16:10:01.754Z,9.57
2018-01-23T16:12:31.576Z,12.88
2018-01-23T16:14:59.065Z,14.98
2018-01-23T16:17:26.965Z,13.20
2018-01-23T16:19:55.237Z,14.30
2018-01-23T16:22:23.793Z,12.80
2018-01-23T16:24:52.036Z,11.40
2018-01-23T16:27:20.343Z,11.88
2018-01-23T16:29:48.742Z,14.60
2018-01-23T16:32:16.983Z,16.35
2018-01-23T16:34:45.068Z,12.95
2018-01-23T16:37:13.508Z,13.88
2018-01-23T16:39:41.752Z,17.10
2018-01-23T16:42:09.628Z,12.27
2018-01-23T16:44:37.915Z,8.40
2018-01-23T16:47:06.901Z,14.90
2018-01-23T16:49:34.396Z,17.08
2018-01-23T16:52:02.686Z,17.48
2018-01-23T16:54:30.619Z,19.02
2018-01-23T16:56:59.192Z,17.00
2018-01-23T16:59:27.126Z,19.05
2018-01-23T17:01:55.490Z,12.15
2018-01-23T17:04:23.362Z,18.52
2018-01-23T17:06:51.406Z,18.87
2018-01-23T17:09:20.067Z,16.83
2018-01-23T17:11:48.310Z,17.90
2018-01-23T17:14:16.187Z,15.18
2018-01-23T17:16:45.838Z,16.52
2018-01-23T17:19:14.136Z,17.95
2018-01-23T17:21:41.619Z,20.15
2018-01-23T17:24:09.855Z,18.75
2018-01-23T17:26:38.105Z,18.10
2018-01-23T17:29:05.939Z,18.55
2018-01-23T17:31:35.589Z,19.35
2018-01-23T17:34:03.822Z,18.73
2018-01-23T17:36:32.068Z,20.55
2018-01-23T17:38:59.555Z,17.83
2018-01-23T17:41:28.579Z,17.37
2018-01-23T17:43:56.859Z,21.25
2018-01-23T17:46:25.122Z,14.57
2018-01-23T17:48:54.563Z,21.48
2018-01-23T17:51:22.950Z,21.77
2018-01-23T17:53:50.824Z,18.60
2018-01-23T17:56:19.110Z,22.95
2018-01-23T17:58:47.347Z,14.20
2018-01-23T18:01:15.607Z,14.00
2018-01-23T18:03:43.470Z,21.95
2018-01-23T18:06:11.990Z,22.25
2018-01-23T18:08:39.877Z,14.57
2018-01-23T18:11:07.343Z,21.27
2018-01-23T18:13:35.807Z,23.38
2018-01-23T18:16:03.766Z,20.33
2018-01-23T18:18:31.279Z,22.87
2018-01-23T18:20:59.515Z,25.42
2018-01-23T18:23:28.624Z,21.73
2018-01-23T18:25:56.535Z,18.95
2018-01-23T18:28:24.773Z,21.50
2018-01-23T18:30:53.116Z,18.30
2018-01-23T18:33:21.369Z,24.48
2018-01-23T18:35:49.603Z,22.20
2018-01-23T18:38:18.602Z,23.02
2018-01-23T18:40:46.477Z,16.67
2018-01-23T18:43:14.752Z,18.62
2018-01-23T18:45:42.767Z,17.58
2018-01-23T18:48:11.173Z,24.83
2018-01-23T18:50:38.686Z,17.40
2018-01-23T18:53:06.167Z,24.00
2018-01-23T18:55:34.133Z,23.15
2018-01-23T18:58:02.814Z,24.15
2018-01-23T19:00:31.073Z,20.35
2018-01-23T19:02:58.572Z,21.62
2018-01-23T19:05:26.274Z,15.82
2018-01-23T19:07:54.512Z,25.73
2018-01-23T19:10:22.743Z,23.60
2018-01-23T19:12:51.024Z,17.12
2018-01-23T19:15:18.901Z,16.67
2018-01-23T19:17:47.282Z,22.90
2018-01-23T19:20:15.566Z,16.80
2018-01-23T19:22:43.837Z,21.15
2018-01-23T19:25:11.724Z,15.82
2018-01-23T19:27:39.631Z,26.05
2018-01-23T19:30:07.944Z,23.42
2018-01-23T19:32:35.860Z,23.23
2018-01-23T19:35:04.175Z,20.08
2018-01-23T19:37:32.056Z,22.85
2018-01-23T19:40:00.074Z,25.90
2018-01-23T19:42:27.948Z,24.33
2018-01-23T19:44:56.203Z,24.08
2018-01-23T19:47:24.585Z,21.62
2018-01-23T19:49:52.458Z,26.85
2018-01-23T19:52:20.695Z,28.00
2018-01-23T19:54:49.767Z,21.40
2018-01-23T19:57:17.255Z,24.85
2018-01-23T19:59:45.133Z,25.08
2018-01-23T20:02:13.011Z,25.05
2018-01-23T20:04:40.941Z,23.70
2018-01-23T20:07:08.473Z,22.25
2018-01-23T20:09:36.346Z,24.20
2018-01-23T20:12:04.605Z,25.60
2018-01-23T20:14:33.178Z,24.98
2018-01-23T20:17:02.044Z,25.33
2018-01-23T20:19:30.299Z,20.73
2018-01-23T20:21:58.331Z,19.85
2018-01-23T20:24:26.410Z,19.62
2018-01-23T20:26:54.076Z,22.92
2018-01-23T20:29:22.488Z,20.75
2018-01-23T20:31:50.536Z,16.75
2018-01-23T20:34:19.228Z,22.02
2018-01-23T20:36:47.840Z,20.05
2018-01-23T20:39:15.895Z,21.35
2018-01-23T20:41:43.610Z,21.15
2018-01-23T20:44:11.574Z,21.25
2018-01-23T20:46:40.430Z,20.85
2018-01-23T20:49:08.780Z,22.27
2018-01-23T20:51:36.663Z,22.75
2018-01-23T20:54:04.179Z,23.75
2018-01-23T20:56:32.567Z,24.40
2018-01-23T20:59:00.929Z,25.95
2018-01-23T21:01:28.930Z,23.05
2018-01-23T21:03:58.351Z,24.10
2018-01-23T21:06:26.689Z,23.95
2018-01-23T21:08:54.187Z,21.87
2018-01-23T21:11:22.416Z,16.17
2018-01-23T21:13:50.672Z,24.63
2018-01-23T21:16:19.235Z,22.98
2018-01-23T21:18:47.607Z,23.45
2018-01-23T21:21:17.297Z,20.65
2018-01-23T21:23:44.872Z,21.77
2018-01-23T21:26:12.843Z,23.38
2018-01-23T21:28:41.099Z,21.40
2018-01-23T21:31:09.760Z,21.62
2018-01-23T21:33:38.390Z,23.30
2018-01-23T21:36:08.055Z,18.15
2018-01-23T21:38:36.088Z,21.27
2018-01-23T21:41:04.005Z,18.87
2018-01-23T21:43:31.927Z,21.55
2018-01-23T21:45:59.814Z,20.02
2018-01-23T21:48:28.120Z,21.67
2018-01-23T21:50:56.649Z,24.85
2018-01-23T21:53:24.632Z,17.77
2018-01-23T21:55:54.295Z,20.70
2018-01-23T21:58:22.203Z,19.33
2018-01-23T22:00:50.495Z,17.02
2018-01-23T22:03:19.310Z,16.30
2018-01-23T22:05:47.911Z,15.88
2018-01-23T22:08:16.276Z,13.82
2018-01-23T22:10:44.148Z,15.05
2018-01-23T22:13:12.035Z,11.30
2018-01-23T22:15:39.938Z,10.40
2018-01-23T22:18:07.933Z,8.20
2018-01-23T22:20:36.138Z,8.50
2018-01-23T22:23:04.715Z,6.03
2018-01-23T22:25:32.275Z,5.37
2018-01-23T22:27:59.764Z,4.93
2018-01-23T22:30:27.655Z,4.97
2018-01-23T22:32:56.060Z,6.72
2018-01-23T22:35:24.361Z,8.20
2018-01-23T22:37:53.005Z,7.57
2018-01-23T22:40:21.234Z,9.52
2018-01-23T22:42:49.575Z,10.23
2018-01-23T22:45:18.221Z,7.87
2018-01-23T22:47:46.497Z,6.85
2018-01-23T22:50:14.388Z,11.05
2018-01-23T22:52:42.948Z,8.40
2018-01-23T22:55:11.774Z,8.82
2018-01-23T22:57:40.561Z,9.60
2018-01-23T23:00:08.055Z,8.80
2018-01-23T23:02:36.550Z,8.10
2018-01-23T23:05:04.465Z,8.00
2018-01-23T23:07:31.975Z,7.93
2018-01-23T23:09:59.732Z,9.63
2018-01-23T23:12:27.627Z,9.55
2018-01-23T23:14:55.968Z,9.15
2018-01-23T23:17:24.208Z,9.43
2018-01-23T23:19:52.087Z,10.13
2018-01-23T23:22:20.311Z,8.65
2018-01-23T23:24:48.831Z,10.02
2018-01-23T23:27:17.431Z,8.93
2018-01-23T23:29:45.487Z,10.75
2018-01-23T23:32:21.612Z,10.27
2018-01-23T23:34:50.491Z,10.43
2018-01-23T23:37:18.814Z,11.23
2018-01-23T23:39:46.684Z,10.70
2018-01-23T23:42:14.907Z,11.65
2018-01-23T23:44:42.772Z,10.85
2018-01-23T23:47:11.016Z,10.77
